createdAt,value
2023-01-11T00:04:30.535Z,7.22
2023-01-11T00:14:33.325Z,7.35
2023-01-11T00:24:37.679Z,7.38
2023-01-11T00:34:40.230Z,7.49
2023-01-11T00:45:01.674Z,7.59
2023-01-11T00:55:04.273Z,7.64
2023-01-11T01:05:08.822Z,7.66
2023-01-11T01:15:11.780Z,7.71
2023-01-11T01:25:15.944Z,7.83
2023-01-11T01:35:18.492Z,7.83
2023-01-11T01:45:24.919Z,7.90
2023-01-11T01:55:29.456Z,7.97
2023-01-11T02:05:33.342Z,7.99
2023-01-11T02:15:36.130Z,8.04
2023-01-11T02:26:08.781Z,8.10
2023-01-11T02:36:18.690Z,8.16
2023-01-11T02:46:28.469Z,8.18
2023-01-11T02:56:35.104Z,8.12
2023-01-11T03:06:37.755Z,8.16
2023-01-11T03:16:43.670Z,8.23
2023-01-11T03:26:50.929Z,8.23
2023-01-11T03:36:56.999Z,8.30
2023-01-11T03:47:02.179Z,8.37
2023-01-11T03:57:08.900Z,8.41
2023-01-11T04:07:11.370Z,8.40
2023-01-11T04:17:15.208Z,8.45
2023-01-11T04:27:17.695Z,8.56
2023-01-11T04:37:21.555Z,8.57
2023-01-11T04:47:25.475Z,8.64
2023-01-11T04:57:29.332Z,8.68
2023-01-11T05:07:31.818Z,8.70
2023-01-11T05:17:35.694Z,8.69
2023-01-11T05:27:38.361Z,8.69
2023-01-11T05:37:42.327Z,8.78
2023-01-11T05:47:44.847Z,8.76
2023-01-11T05:57:48.689Z,8.80
2023-01-11T06:07:51.244Z,8.85
2023-01-11T06:17:55.100Z,8.93
2023-01-11T06:27:57.575Z,8.96
2023-01-11T06:38:01.505Z,8.92
2023-01-11T06:48:05.160Z,8.98
2023-01-11T06:58:09.003Z,9.03
2023-01-11T07:08:11.622Z,9.05
2023-01-11T07:18:15.600Z,9.07
2023-01-11T07:28:42.967Z,9.12
2023-01-11T07:38:47.981Z,9.19
2023-01-11T07:48:50.429Z,9.30
2023-01-11T07:58:54.225Z,9.41
2023-01-11T08:08:56.712Z,9.53
2023-01-11T08:19:01.559Z,9.65
2023-01-11T08:29:04.045Z,9.75
2023-01-11T08:39:07.908Z,9.80
2023-01-11T08:49:12.370Z,9.87
2023-01-11T08:59:16.182Z,9.92
2023-01-11T09:09:18.840Z,9.96
2023-01-11T09:19:22.665Z,10.08
2023-01-11T09:29:25.166Z,10.13
2023-01-11T09:39:29.032Z,10.23
2023-01-11T09:49:35.072Z,10.32
2023-01-11T09:59:46.642Z,10.41
2023-01-11T10:20:27.569Z,10.48
2023-01-11T10:30:48.366Z,10.54
2023-01-11T10:41:08.310Z,10.64
2023-01-11T10:51:24.809Z,10.67
2023-01-11T11:01:38.802Z,10.69
2023-01-11T11:11:46.990Z,10.74
2023-01-11T11:21:52.221Z,10.71
2023-01-11T11:31:54.771Z,10.69
2023-01-11T11:42:04.984Z,10.67
2023-01-11T11:52:08.202Z,10.68
2023-01-11T12:02:22.344Z,10.65
2023-01-11T12:12:27.823Z,10.64
2023-01-11T12:22:33.161Z,10.62
2023-01-11T12:32:54.637Z,10.62
2023-01-11T12:43:09.983Z,10.52
2023-01-11T12:53:20.391Z,10.44
2023-01-11T13:03:36.964Z,10.40
2023-01-11T13:13:49.556Z,10.21
2023-01-11T13:23:55.506Z,10.27
2023-01-11T13:34:02.249Z,10.24
2023-01-11T13:44:08.612Z,10.19
2023-01-11T13:54:15.213Z,10.16
2023-01-11T14:04:23.331Z,10.23
2023-01-11T14:14:32.792Z,10.13
2023-01-11T14:24:39.130Z,10.14
2023-01-11T14:35:02.760Z,10.12
2023-01-11T14:45:16.855Z,10.00
2023-01-11T14:55:21.727Z,9.95
2023-01-11T15:05:35.023Z,9.90
2023-01-11T15:15:54.918Z,9.82
2023-01-11T15:26:03.073Z,9.74
2023-01-11T15:36:07.856Z,9.63
2023-01-11T15:46:45.957Z,9.61
2023-01-11T15:56:56.555Z,9.45
2023-01-11T16:07:00.135Z,9.36
2023-01-11T16:17:04.124Z,9.29
2023-01-11T16:27:09.949Z,9.32
2023-01-11T16:37:21.861Z,9.17
2023-01-11T16:47:24.371Z,9.17
2023-01-11T16:57:30.324Z,9.10
2023-01-11T17:07:32.783Z,8.91
2023-01-11T17:17:38.890Z,8.89
2023-01-11T17:27:42.421Z,9.03
2023-01-11T17:37:47.007Z,8.98
2023-01-11T17:47:50.380Z,8.79
2023-01-11T17:58:12.266Z,8.82
2023-01-11T18:08:18.949Z,8.87
2023-01-11T18:18:42.776Z,8.79
2023-01-11T18:28:45.722Z,8.67
2023-01-11T18:38:50.324Z,8.54
2023-01-11T18:48:52.869Z,8.41
2023-01-11T18:58:56.877Z,8.33
2023-01-11T19:08:59.424Z,8.10
2023-01-11T19:19:03.302Z,8.14
2023-01-11T19:29:05.928Z,8.12
2023-01-11T19:39:09.825Z,8.13
2023-01-11T19:49:12.254Z,8.11
2023-01-11T19:59:16.647Z,8.36
2023-01-11T20:09:19.408Z,8.01
2023-01-11T20:19:23.393Z,8.00
2023-01-11T20:29:26.118Z,7.80
2023-01-11T20:39:30.033Z,7.80
2023-01-11T20:49:32.531Z,7.56
2023-01-11T20:59:36.337Z,7.50
2023-01-11T21:09:38.907Z,7.50
2023-01-11T21:19:43.725Z,7.28
2023-01-11T21:29:46.266Z,7.09
2023-01-11T21:39:51.289Z,7.19
2023-01-11T21:49:53.815Z,7.20
2023-01-11T21:59:57.626Z,7.25
2023-01-11T22:10:04.901Z,7.12
2023-01-11T22:20:10.201Z,7.06
2023-01-11T22:30:13.133Z,7.13
2023-01-11T22:40:17.196Z,7.08
2023-01-11T22:50:19.807Z,7.25
2023-01-11T23:00:23.891Z,7.20
2023-01-11T23:10:26.366Z,7.13
2023-01-11T23:20:30.238Z,7.12
2023-01-11T23:30:32.743Z,6.98
2023-01-11T23:40:57.733Z,6.92
2023-01-11T23:51:05.752Z,6.86
